Time;durP1;ratioP1;P1;durP2;ratioP2;P2;SDS_P1;SDS_P2;PMS_P1;PMS_P2;Temp;Humidity;BMP_temperature;BMP_pressure;BME280_temperature;BME280_humidity;BME280_pressure;Samples;Min_cycle;Max_cycle;Signal;HPM_P1;HPM_P2
2022/07/18 00:00:20;;;;;;;8.02;3.58;;;18.60;89.80;;;;;;5112754;28;20026;-48
2022/07/18 00:02:45;;;;;;;7.22;3.78;;;18.60;89.90;;;;;;5113075;28;20019;-45
2022/07/18 00:05:11;;;;;;;9.93;3.92;;;18.70;90.50;;;;;;5113082;28;20427;-47
2022/07/18 00:07:37;;;;;;;7.60;3.97;;;18.80;90.00;;;;;;5112838;28;20412;-43
2022/07/18 00:10:04;;;;;;;6.78;3.47;;;18.80;89.40;;;;;;5112682;28;20016;-47
2022/07/18 00:12:30;;;;;;;6.78;4.28;;;18.80;89.40;;;;;;5112486;28;20110;-46
2022/07/18 00:14:56;;;;;;;7.80;4.30;;;18.70;90.40;;;;;;5112712;28;20132;-49
2022/07/18 00:17:21;;;;;;;10.38;3.88;;;18.70;90.60;;;;;;5112545;28;20037;-43
2022/07/18 00:19:47;;;;;;;7.22;3.97;;;18.70;90.50;;;;;;5112664;28;20107;-47
2022/07/18 00:22:13;;;;;;;7.35;4.13;;;18.70;90.20;;;;;;5112623;28;20384;-50
2022/07/18 00:24:39;;;;;;;8.18;4.22;;;18.70;90.60;;;;;;5112433;28;20024;-46
2022/07/18 00:27:07;;;;;;;6.90;4.03;;;18.80;90.40;;;;;;5112458;28;20023;-44
2022/07/18 00:29:35;;;;;;;6.85;4.05;;;18.80;90.10;;;;;;5112552;28;20076;-45
2022/07/18 00:32:03;;;;;;;7.32;4.38;;;18.70;90.50;;;;;;5112303;28;20115;-50
2022/07/18 00:34:28;;;;;;;8.48;3.92;;;18.70;91.00;;;;;;5112221;28;20077;-44
2022/07/18 00:36:54;;;;;;;6.75;3.70;;;18.60;90.70;;;;;;5112345;28;20031;-50
2022/07/18 00:39:20;;;;;;;7.20;3.88;;;18.70;90.40;;;;;;5111676;28;20050;-46
2022/07/18 00:41:49;;;;;;;7.35;3.92;;;18.70;90.70;;;;;;5111685;28;20490;-50
2022/07/18 00:44:22;;;;;;;;;;;18.70;90.50;;;;;;5112214;28;20252;-47
2022/07/18 00:46:52;;;;;;;7.40;3.78;;;18.70;90.00;;;;;;5112049;28;19911;-48
2022/07/18 00:49:18;;;;;;;7.32;3.70;;;18.70;89.70;;;;;;5093503;28;20040;-44
2022/07/18 00:51:44;;;;;;;5.85;3.78;;;18.70;89.50;;;;;;5111688;28;20038;-43
2022/07/18 00:54:10;;;;;;;8.45;4.35;;;18.60;90.00;;;;;;5111808;28;20394;-47
2022/07/18 00:56:36;;;;;;;5.40;3.67;;;18.60;90.10;;;;;;5111443;28;20550;-50
2022/07/18 00:59:03;;;;;;;6.38;3.92;;;18.60;90.60;;;;;;5111878;28;20039;-42
2022/07/18 01:01:46;;;;;;;7.78;3.78;;;18.60;90.90;;;;;;5111842;28;20110;-42
2022/07/18 01:04:18;;;;;;;6.70;3.65;;;18.60;91.10;;;;;;5111630;28;20015;-42
2022/07/18 01:06:45;;;;;;;6.38;4.07;;;18.60;90.80;;;;;;5111815;28;20020;-42
2022/07/18 01:09:11;;;;;;;9.00;3.97;;;18.60;90.20;;;;;;5111367;28;20498;-43
2022/07/18 01:11:37;;;;;;;8.80;3.70;;;18.60;90.50;;;;;;5111598;28;20046;-45
2022/07/18 01:14:04;;;;;;;7.00;4.35;;;18.60;91.00;;;;;;5111590;28;20073;-52
2022/07/18 01:16:30;;;;;;;6.68;3.75;;;18.60;91.30;;;;;;5111620;28;20147;-50
2022/07/18 01:18:56;;;;;;;6.32;3.83;;;18.60;91.40;;;;;;5111427;28;20020;-43
2022/07/18 01:21:22;;;;;;;11.13;3.90;;;18.50;91.60;;;;;;5111661;28;20016;-44
2022/07/18 01:23:48;;;;;;;7.03;3.40;;;18.50;91.80;;;;;;5111566;28;20027;-46
2022/07/18 01:26:16;;;;;;;5.85;3.40;;;18.50;92.30;;;;;;5111363;28;20038;-43
2022/07/18 01:28:43;;;;;;;8.17;3.97;;;18.60;90.40;;;;;;5111539;28;20027;-47
2022/07/18 01:31:09;;;;;;;6.35;3.45;;;18.60;89.50;;;;;;5111213;28;20031;-48
2022/07/18 01:33:36;;;;;;;7.53;3.60;;;18.70;90.30;;;;;;5111410;28;20022;-43
2022/07/18 01:36:03;;;;;;;6.45;3.38;;;18.70;89.40;;;;;;5111399;28;20069;-45
2022/07/18 01:38:30;;;;;;;6.85;3.55;;;18.80;89.10;;;;;;5111206;28;20019;-46
2022/07/18 01:40:56;;;;;;;9.15;3.97;;;18.90;90.50;;;;;;5110423;28;20104;-50
2022/07/18 01:43:23;;;;;;;8.38;4.30;;;18.90;90.30;;;;;;5111038;28;20160;-43
2022/07/18 01:45:48;;;;;;;5.50;3.63;;;18.90;90.40;;;;;;5111048;28;20030;-52
2022/07/18 01:48:15;;;;;;;7.82;3.67;;;18.90;90.40;;;;;;5110961;28;20024;-47
2022/07/18 01:50:41;;;;;;;6.97;4.05;;;18.90;90.90;;;;;;5110577;28;20051;-48
2022/07/18 01:53:06;;;;;;;5.97;3.60;;;19.00;87.70;;;;;;5111196;28;20024;-53
2022/07/18 01:55:32;;;;;;;7.78;3.40;;;19.20;86.50;;;;;;5111113;28;20473;-42
2022/07/18 01:57:58;;;;;;;7.10;3.33;;;19.30;85.40;;;;;;5111293;28;20442;-44
2022/07/18 02:00:24;;;;;;;9.00;3.92;;;19.40;86.50;;;;;;5110821;28;20377;-43
2022/07/18 02:02:49;;;;;;;5.47;3.30;;;19.40;85.10;;;;;;5111075;28;20543;-43
2022/07/18 02:05:15;;;;;;;6.80;3.38;;;19.50;84.30;;;;;;5110881;28;20424;-43
2022/07/18 02:07:42;;;;;;;6.93;3.55;;;19.60;84.10;;;;;;5113098;28;20019;-47
2022/07/18 02:10:12;;;;;;;7.63;3.88;;;19.60;84.40;;;;;;5114784;28;20019;-54
2022/07/18 02:12:38;;;;;;;6.68;3.05;;;19.60;85.00;;;;;;5114377;28;20030;-47
2022/07/18 02:15:06;;;;;;;7.80;3.35;;;19.60;86.40;;;;;;5114659;28;20031;-43
2022/07/18 02:17:32;;;;;;;6.72;3.55;;;19.40;87.90;;;;;;5114692;28;20085;-52
2022/07/18 02:19:58;;;;;;;6.43;3.28;;;19.30;88.10;;;;;;5114879;28;20023;-42
2022/07/18 02:22:24;;;;;;;5.25;3.17;;;19.20;90.40;;;;;;5114865;28;20037;-43
2022/07/18 02:24:50;;;;;;;6.13;3.42;;;19.10;90.50;;;;;;5114673;28;20028;-43
2022/07/18 02:27:17;;;;;;;8.80;3.90;;;19.00;90.60;;;;;;5114795;28;20028;-48
2022/07/18 02:29:43;;;;;;;6.75;3.72;;;18.80;91.10;;;;;;5114281;28;20023;-43
2022/07/18 02:32:08;;;;;;;5.25;3.22;;;18.70;91.20;;;;;;5114679;28;20378;-43
2022/07/18 02:34:34;;;;;;;6.63;3.40;;;18.70;91.80;;;;;;5114464;28;20015;-46
2022/07/18 02:37:00;;;;;;;5.45;3.30;;;18.60;91.60;;;;;;5114433;28;20031;-47
2022/07/18 02:39:26;;;;;;;7.25;3.25;;;18.60;90.90;;;;;;5114574;28;20034;-47
2022/07/18 02:41:52;;;;;;;5.22;3.05;;;18.60;90.30;;;;;;5114320;28;20406;-43
2022/07/18 02:44:18;;;;;;;5.63;3.35;;;18.60;90.10;;;;;;5114489;28;20024;-43
2022/07/18 02:46:44;;;;;;;7.30;3.58;;;18.70;89.90;;;;;;5114342;28;20369;-46
2022/07/18 02:49:10;;;;;;;8.63;3.50;;;18.80;88.90;;;;;;5114261;28;20727;-45
2022/07/18 02:51:35;;;;;;;6.28;3.25;;;18.90;88.60;;;;;;5114023;28;20031;-46
2022/07/18 02:54:01;;;;;;;6.53;3.55;;;19.00;88.20;;;;;;5114353;28;20055;-46
2022/07/18 02:56:27;;;;;;;5.72;3.17;;;19.10;88.40;;;;;;5113483;28;20023;-43
2022/07/18 02:58:52;;;;;;;8.00;3.40;;;19.10;88.30;;;;;;5113877;28;20379;-46
2022/07/18 03:01:18;;;;;;;7.07;3.05;;;19.00;90.00;;;;;;5114019;28;20378;-45
2022/07/18 03:03:44;;;;;;;7.20;3.53;;;19.00;90.10;;;;;;5114160;28;20032;-45
2022/07/18 03:06:10;;;;;;;6.60;3.30;;;18.90;90.10;;;;;;5114141;28;20491;-45
2022/07/18 03:08:35;;;;;;;5.75;3.30;;;18.90;90.70;;;;;;5114017;28;20032;-43
2022/07/18 03:11:01;;;;;;;6.47;3.45;;;18.80;91.00;;;;;;5113417;28;20510;-44
2022/07/18 03:13:27;;;;;;;7.57;3.65;;;18.80;90.60;;;;;;5113713;28;20035;-43
2022/07/18 03:15:52;;;;;;;7.28;2.90;;;18.80;91.10;;;;;;5095248;28;20023;-42
2022/07/18 03:18:19;;;;;;;6.38;3.20;;;18.70;91.20;;;;;;5114000;28;20023;-45
2022/07/18 03:20:44;;;;;;;6.20;3.58;;;18.70;92.60;;;;;;5113541;28;20065;-43
2022/07/18 03:23:10;;;;;;;6.85;3.50;;;18.60;92.50;;;;;;5113708;28;20112;-42
2022/07/18 03:25:36;;;;;;;6.75;3.30;;;18.50;91.90;;;;;;5113704;28;20037;-42
2022/07/18 03:28:01;;;;;;;6.07;3.20;;;18.50;91.60;;;;;;5113493;28;20114;-43
2022/07/18 03:30:27;;;;;;;6.07;3.40;;;18.50;92.30;;;;;;5113388;28;20043;-45
2022/07/18 03:32:53;;;;;;;7.88;3.53;;;18.50;91.40;;;;;;5113529;28;20050;-42
2022/07/18 03:35:19;;;;;;;5.32;3.20;;;18.50;90.80;;;;;;5113507;28;20020;-44
2022/07/18 03:37:44;;;;;;;7.07;3.17;;;18.60;90.70;;;;;;5113240;28;20023;-46
2022/07/18 03:40:10;;;;;;;6.53;3.63;;;18.60;90.50;;;;;;5111270;28;20106;-45
2022/07/18 03:42:38;;;;;;;7.13;3.25;;;18.60;91.00;;;;;;5107774;28;20015;-45
2022/07/18 03:45:05;;;;;;;5.75;3.20;;;18.60;90.80;;;;;;5109442;28;20088;-47
2022/07/18 03:47:31;;;;;;;7.15;3.17;;;18.50;91.10;;;;;;5097107;28;20032;-46
2022/07/18 03:49:56;;;;;;;7.05;3.72;;;18.60;91.40;;;;;;5106842;28;20052;-46
2022/07/18 03:52:22;;;;;;;5.43;3.38;;;18.50;91.80;;;;;;5092786;28;20043;-45
2022/07/18 03:54:48;;;;;;;5.90;3.03;;;18.50;92.40;;;;;;5092730;28;20024;-46
2022/07/18 03:57:13;;;;;;;6.50;3.30;;;18.40;92.10;;;;;;5096947;28;20039;-42
2022/07/18 03:59:39;;;;;;;8.00;3.38;;;18.30;92.40;;;;;;5102388;28;20027;-42
2022/07/18 04:02:04;;;;;;;5.40;3.08;;;18.20;92.90;;;;;;5092623;28;20024;-49
2022/07/18 04:04:30;;;;;;;5.68;3.63;;;18.10;93.50;;;;;;5092674;28;20536;-47
2022/07/18 04:06:59;;;;;;;6.45;3.47;;;18.00;93.80;;;;;;5092432;28;20479;-45
2022/07/18 04:09:25;;;;;;;5.63;2.92;;;17.90;94.20;;;;;;5092492;28;20027;-46
2022/07/18 04:11:51;;;;;;;5.55;3.28;;;17.90;94.50;;;;;;5097178;28;20044;-45
2022/07/18 04:14:16;;;;;;;7.18;3.67;;;17.90;93.50;;;;;;5096400;28;20042;-47
2022/07/18 04:16:43;;;;;;;6.88;3.75;;;17.90;93.80;;;;;;5102033;28;20501;-42
2022/07/18 04:19:09;;;;;;;7.18;3.33;;;17.90;93.60;;;;;;5092234;28;20044;-44
2022/07/18 04:21:35;;;;;;;5.90;3.15;;;17.90;93.60;;;;;;5092167;28;20020;-44
2022/07/18 04:24:01;;;;;;;5.88;3.20;;;18.00;93.30;;;;;;5092110;28;20024;-44
2022/07/18 04:26:26;;;;;;;6.00;3.33;;;18.00;92.60;;;;;;5091944;28;20106;-42
2022/07/18 04:28:52;;;;;;;6.45;3.60;;;18.10;92.60;;;;;;5092089;28;20479;-51
2022/07/18 04:31:18;;;;;;;7.68;3.42;;;18.20;92.60;;;;;;5091382;28;20145;-47
2022/07/18 04:33:44;;;;;;;6.30;3.15;;;18.30;92.40;;;;;;5092175;28;20016;-42
2022/07/18 04:36:10;;;;;;;6.85;2.95;;;18.50;91.80;;;;;;5091831;28;20542;-42
2022/07/18 04:38:37;;;;;;;5.35;2.95;;;18.60;91.50;;;;;;5091942;28;20043;-44
2022/07/18 04:41:04;;;;;;;8.30;3.10;;;18.70;92.10;;;;;;5085866;28;20059;-48
2022/07/18 04:43:30;;;;;;;6.70;3.03;;;18.70;91.70;;;;;;5102272;28;20035;-43
2022/07/18 04:45:56;;;;;;;6.32;2.95;;;18.80;92.00;;;;;;5098836;28;20047;-46
2022/07/18 04:48:22;;;;;;;7.00;3.20;;;18.80;91.50;;;;;;5095533;28;20102;-47
2022/07/18 04:50:47;;;;;;;6.40;3.13;;;18.90;92.50;;;;;;5101512;28;20136;-46
2022/07/18 04:53:13;;;;;;;6.35;3.33;;;18.90;92.20;;;;;;5091554;28;20028;-43
2022/07/18 04:55:39;;;;;;;7.95;3.42;;;19.00;91.90;;;;;;5091535;28;20443;-48
2022/07/18 04:58:04;;;;;;;7.60;3.30;;;19.00;92.00;;;;;;5091535;28;20024;-47
2022/07/18 05:00:30;;;;;;;4.47;2.88;;;19.00;93.00;;;;;;5091339;28;20070;-42
2022/07/18 05:02:57;;;;;;;5.43;3.08;;;19.00;93.40;;;;;;5091685;28;20016;-45
2022/07/18 05:05:25;;;;;;;5.45;3.10;;;19.00;94.30;;;;;;5091348;28;20029;-46
2022/07/18 05:07:51;;;;;;;7.57;3.22;;;19.00;94.30;;;;;;5091504;28;20141;-45
2022/07/18 05:10:19;;;;;;;7.50;3.13;;;19.10;94.40;;;;;;5077365;28;20023;-53
2022/07/18 05:12:46;;;;;;;4.78;2.90;;;19.10;94.70;;;;;;5091698;28;20028;-43
2022/07/18 05:15:14;;;;;;;8.73;3.47;;;19.20;93.10;;;;;;5105251;28;20012;-52
2022/07/18 05:17:40;;;;;;;7.82;3.60;;;19.20;92.10;;;;;;5103634;28;20028;-48
2022/07/18 05:20:08;;;;;;;7.20;3.20;;;19.30;93.00;;;;;;5108751;28;20023;-46
2022/07/18 05:22:36;;;;;;;6.30;2.88;;;19.40;92.40;;;;;;5100539;28;20078;-46
2022/07/18 05:25:03;;;;;;;5.25;2.70;;;19.50;92.10;;;;;;5091119;28;20032;-47
2022/07/18 05:27:29;;;;;;;9.20;3.22;;;19.70;93.40;;;;;;5101408;28;20073;-45
2022/07/18 05:29:55;;;;;;;5.95;3.17;;;19.80;92.50;;;;;;5091328;28;20020;-43
2022/07/18 05:32:21;;;;;;;7.95;3.20;;;19.90;93.50;;;;;;5090978;28;20036;-46
2022/07/18 05:34:47;;;;;;;6.68;3.20;;;20.00;91.20;;;;;;5091051;28;20472;-45
2022/07/18 05:37:13;;;;;;;6.05;2.95;;;20.20;92.00;;;;;;5090969;28;20024;-43
2022/07/18 05:39:38;;;;;;;9.10;3.42;;;20.30;91.30;;;;;;5092358;28;20032;-43
2022/07/18 05:42:04;;;;;;;5.70;2.67;;;20.40;90.50;;;;;;5100105;28;20031;-43
2022/07/18 05:44:30;;;;;;;6.22;3.20;;;20.60;90.50;;;;;;5095162;28;20028;-48
2022/07/18 05:46:56;;;;;;;6.28;3.13;;;20.70;90.50;;;;;;5101248;28;20092;-48
2022/07/18 05:49:21;;;;;;;5.68;3.20;;;20.80;90.20;;;;;;5107446;28;20050;-43
2022/07/18 05:51:47;;;;;;;6.57;3.08;;;20.70;90.10;;;;;;5096788;28;20039;-46
2022/07/18 05:54:18;;;;;;;8.40;3.40;;;20.80;90.10;;;;;;5095042;28;20471;-45
2022/07/18 05:56:45;;;;;;;5.10;3.00;;;20.90;90.20;;;;;;5095045;28;20038;-47
2022/07/18 05:59:11;;;;;;;5.15;2.90;;;21.10;90.40;;;;;;5094959;28;20387;-45
2022/07/18 06:01:37;;;;;;;6.68;3.15;;;21.40;88.50;;;;;;5094787;28;20028;-43
2022/07/18 06:04:02;;;;;;;7.28;2.70;;;22.40;88.70;;;;;;5094913;28;20062;-49
2022/07/18 06:06:29;;;;;;;7.40;2.90;;;23.30;84.40;;;;;;5094764;28;20016;-48
2022/07/18 06:08:54;;;;;;;6.70;3.08;;;24.10;81.10;;;;;;5094559;28;20111;-43
2022/07/18 06:11:20;;;;;;;9.77;2.92;;;24.80;79.70;;;;;;5110324;28;20209;-43
2022/07/18 06:13:46;;;;;;;5.57;2.55;;;25.40;78.30;;;;;;5116771;27;20025;-49
2022/07/18 06:16:11;;;;;;;9.15;3.10;;;25.70;76.40;;;;;;5120525;27;20024;-43
2022/07/18 06:18:37;;;;;;;6.20;2.75;;;26.00;77.30;;;;;;5117601;27;20028;-44
2022/07/18 06:21:04;;;;;;;7.95;2.75;;;26.40;75.70;;;;;;5123750;27;20026;-44
2022/07/18 06:23:30;;;;;;;4.47;2.45;;;27.10;75.60;;;;;;5114421;27;20056;-43
2022/07/18 06:25:57;;;;;;;4.28;2.55;;;27.80;72.40;;;;;;5114574;27;20363;-43
2022/07/18 06:28:23;;;;;;;4.30;2.47;;;28.20;72.50;;;;;;5113842;27;20028;-44
2022/07/18 06:30:48;;;;;;;5.68;2.50;;;28.90;70.60;;;;;;5118255;27;20049;-44
2022/07/18 06:33:14;;;;;;;4.63;2.65;;;29.20;67.60;;;;;;5115206;27;20027;-44
2022/07/18 06:35:40;;;;;;;6.97;2.58;;;29.80;67.00;;;;;;5117666;27;20090;-47
2022/07/18 06:38:06;;;;;;;5.80;2.70;;;30.30;63.50;;;;;;5116997;27;20088;-44
2022/07/18 06:40:32;;;;;;;5.90;2.78;;;30.60;60.50;;;;;;5116203;27;20024;-50
2022/07/18 06:42:58;;;;;;;4.28;2.67;;;31.10;59.30;;;;;;5117681;27;20072;-43
2022/07/18 06:45:24;;;;;;;6.70;2.75;;;31.40;56.00;;;;;;5111270;27;20039;-45
2022/07/18 06:47:49;;;;;;;7.25;3.00;;;31.70;56.10;;;;;;5113706;27;20019;-48
2022/07/18 06:50:15;;;;;;;5.43;2.40;;;31.80;55.30;;;;;;5110951;28;20772;-44
2022/07/18 06:52:43;;;;;;;4.72;2.35;;;32.20;55.90;;;;;;5114340;27;20039;-44
2022/07/18 06:55:10;;;;;;;5.18;2.10;;;32.30;51.90;;;;;;5116790;27;20011;-44
2022/07/18 06:57:36;;;;;;;6.93;2.17;;;32.40;53.50;;;;;;5117364;27;20023;-46
2022/07/18 07:00:03;;;;;;;6.13;2.25;;;32.40;50.60;;;;;;5119347;27;20485;-44
2022/07/18 07:02:29;;;;;;;4.00;2.13;;;32.50;50.80;;;;;;5122118;27;20023;-44
2022/07/18 07:04:55;;;;;;;4.65;2.42;;;32.70;50.20;;;;;;5118223;27;20034;-44
2022/07/18 07:07:20;;;;;;;6.63;2.47;;;32.80;47.30;;;;;;5115208;27;20470;-44
2022/07/18 07:09:46;;;;;;;4.78;2.28;;;32.30;47.60;;;;;;5115433;27;20033;-45
2022/07/18 07:12:12;;;;;;;4.43;2.40;;;32.40;49.30;;;;;;5116526;27;20035;-44
2022/07/18 07:14:37;;;;;;;5.13;2.20;;;32.70;53.10;;;;;;5115380;27;20094;-44
2022/07/18 07:17:04;;;;;;;4.97;2.63;;;33.20;50.30;;;;;;5116542;27;20455;-44
2022/07/18 07:19:30;;;;;;;6.18;2.38;;;33.30;45.30;;;;;;5115168;27;20024;-44
2022/07/18 07:21:56;;;;;;;3.95;1.95;;;33.10;46.00;;;;;;5115296;27;20470;-44
2022/07/18 07:24:21;;;;;;;6.18;2.40;;;33.50;47.80;;;;;;5115985;27;20023;-44
2022/07/18 07:26:47;;;;;;;5.60;2.60;;;33.10;46.20;;;;;;5121736;27;20019;-44
2022/07/18 07:29:14;;;;;;;5.30;2.30;;;33.50;44.30;;;;;;5131066;27;20034;-44
2022/07/18 07:31:40;;;;;;;3.33;1.88;;;33.50;43.80;;;;;;5109952;27;20039;-44
2022/07/18 07:34:06;;;;;;;5.18;2.00;;;33.70;46.10;;;;;;5129551;27;20062;-50
2022/07/18 07:36:32;;;;;;;6.13;2.30;;;34.40;43.40;;;;;;5119792;27;20595;-45
2022/07/18 07:38:58;;;;;;;7.38;2.17;;;34.50;43.10;;;;;;5113557;27;20031;-47
2022/07/18 07:41:23;;;;;;;6.45;2.13;;;34.60;42.20;;;;;;5133209;27;20070;-44
2022/07/18 07:43:49;;;;;;;4.60;2.00;;;34.70;42.50;;;;;;5133533;27;20109;-47
2022/07/18 07:46:15;;;;;;;3.95;2.38;;;35.00;43.50;;;;;;5104868;27;20019;-43
2022/07/18 07:48:40;;;;;;;4.50;2.25;;;35.20;39.00;;;;;;5118559;27;20038;-43
2022/07/18 07:51:06;;;;;;;4.47;2.17;;;35.10;41.70;;;;;;5114330;27;20051;-42
2022/07/18 07:53:32;;;;;;;3.42;2.10;;;35.30;40.20;;;;;;5116085;27;20022;-44
2022/07/18 07:55:58;;;;;;;3.95;2.10;;;35.40;40.30;;;;;;5114440;27;20412;-42
2022/07/18 07:58:24;;;;;;;4.30;2.20;;;35.60;40.40;;;;;;5116107;27;20352;-42
2022/07/18 08:00:49;;;;;;;4.43;2.05;;;35.60;40.70;;;;;;5114679;27;20478;-42
2022/07/18 08:03:15;;;;;;;3.70;1.92;;;35.80;41.50;;;;;;5114756;27;20024;-46
2022/07/18 08:05:49;;;;;;;4.85;1.90;;;36.00;41.50;;;;;;5114003;27;20500;-46
2022/07/18 08:08:15;;;;;;;4.63;2.05;;;36.30;44.80;;;;;;5114136;27;20054;-42
2022/07/18 08:10:42;;;;;;;4.65;1.92;;;35.80;37.80;;;;;;5115257;27;20036;-43
2022/07/18 08:13:09;;;;;;;6.32;2.00;;;36.00;39.70;;;;;;5114258;27;20506;-46
2022/07/18 08:15:35;;;;;;;4.95;2.03;;;36.50;40.90;;;;;;5115415;27;20039;-43
2022/07/18 08:18:01;;;;;;;4.15;2.00;;;36.40;37.60;;;;;;5114383;27;20070;-47
2022/07/18 08:20:27;;;;;;;4.18;1.77;;;36.60;38.60;;;;;;5107254;28;20063;-42
2022/07/18 08:23:02;;;;;;;3.00;1.80;;;36.60;37.50;;;;;;5106011;28;20061;-41
2022/07/18 08:25:30;;;;;;;5.10;1.70;;;37.00;37.70;;;;;;5118395;27;20020;-48
2022/07/18 08:27:57;;;;;;;3.53;1.98;;;37.00;38.00;;;;;;5119959;27;20482;-44
2022/07/18 08:30:23;;;;;;;4.68;1.88;;;37.20;36.60;;;;;;5110515;27;20035;-42
2022/07/18 08:32:49;;;;;;;5.95;2.35;;;37.20;37.20;;;;;;5106478;28;20039;-45
2022/07/18 08:35:15;;;;;;;5.80;1.85;;;37.30;35.20;;;;;;5108144;27;20035;-46
2022/07/18 08:37:42;;;;;;;4.72;1.88;;;37.30;34.70;;;;;;5127300;27;20019;-48
2022/07/18 08:40:08;;;;;;;4.82;1.83;;;36.90;34.50;;;;;;5112689;27;20015;-45
2022/07/18 08:42:34;;;;;;;3.63;1.88;;;36.80;34.40;;;;;;5112096;27;20065;-42
2022/07/18 08:45:01;;;;;;;4.32;1.70;;;36.40;36.70;;;;;;5111509;28;20488;-43
2022/07/18 08:47:29;;;;;;;5.57;1.90;;;36.20;34.80;;;;;;5110246;28;20024;-44
2022/07/18 08:49:55;;;;;;;4.47;2.13;;;36.30;35.00;;;;;;5109279;28;20532;-49
2022/07/18 08:52:21;;;;;;;3.88;1.50;;;36.60;33.90;;;;;;5106251;28;20059;-44
2022/07/18 08:54:49;;;;;;;3.33;1.75;;;36.80;34.20;;;;;;5107528;28;20532;-45
2022/07/18 08:57:20;;;;;;;5.15;1.67;;;37.10;36.10;;;;;;5113764;27;20063;-44
2022/07/18 08:59:46;;;;;;;5.05;1.58;;;37.60;34.50;;;;;;5106772;27;20131;-46
2022/07/18 09:02:11;;;;;;;3.20;1.80;;;37.80;31.90;;;;;;5107065;27;20456;-44
2022/07/18 09:04:42;;;;;;;2.78;1.70;;;37.30;33.60;;;;;;5107593;28;20035;-45
2022/07/18 09:07:09;;;;;;;3.20;1.50;;;37.30;34.10;;;;;;5111185;27;20030;-48
2022/07/18 09:09:36;;;;;;;3.67;1.50;;;37.70;33.60;;;;;;5110463;27;20057;-44
2022/07/18 09:12:09;;;;;;;3.55;1.50;;;38.10;32.90;;;;;;5107948;27;20031;-46
2022/07/18 09:14:43;;;;;;;3.25;1.27;;;37.80;30.00;;;;;;5109240;28;20482;-45
2022/07/18 09:17:14;;;;;;;2.70;1.40;;;37.70;31.00;;;;;;5109884;27;20511;-47
2022/07/18 09:19:43;;;;;;;4.85;1.30;;;37.60;29.20;;;;;;5109644;27;20034;-43
2022/07/18 09:22:15;;;;;;;3.30;1.50;;;37.30;30.30;;;;;;5103233;28;20024;-48
2022/07/18 09:25:12;;;;;;;2.75;1.40;;;36.90;30.40;;;;;;5118862;27;20096;-43
2022/07/18 09:27:49;;;;;;;6.65;1.50;;;37.30;32.40;;;;;;5093476;28;20031;-47
2022/07/18 09:30:28;;;;;;;3.30;1.38;;;37.30;29.80;;;;;;5108531;28;20049;-49
2022/07/18 09:33:04;;;;;;;2.47;1.70;;;37.30;30.10;;;;;;5114021;27;20035;-47
2022/07/18 09:35:33;;;;;;;3.55;1.50;;;37.50;35.00;;;;;;5107265;28;20057;-44
2022/07/18 09:38:11;;;;;;;3.55;1.35;;;37.90;33.30;;;;;;5110012;28;20111;-50
2022/07/18 09:40:38;;;;;;;2.78;1.50;;;38.10;30.00;;;;;;5109830;28;20023;-43
2022/07/18 09:43:06;;;;;;;4.57;1.58;;;37.90;29.80;;;;;;5110959;28;20065;-45
2022/07/18 09:45:34;;;;;;;2.00;1.33;;;37.60;31.20;;;;;;5110221;28;20018;-53
2022/07/18 09:48:20;;;;;;;5.88;1.55;;;37.70;32.00;;;;;;5114749;28;20027;-48
2022/07/18 09:51:10;;;;;;;4.43;1.45;;;37.90;30.30;;;;;;5100568;28;20036;-44
2022/07/18 09:53:38;;;;;;;3.88;1.38;;;37.80;29.70;;;;;;5110660;28;20035;-43
2022/07/18 09:56:06;;;;;;;;;;;37.90;32.60;;;;;;5113158;28;20027;-48
2022/07/18 09:58:37;;;;;;;4.38;1.70;;;38.30;30.20;;;;;;5111977;28;19908;-49
2022/07/18 10:01:05;;;;;;;3.00;1.58;;;38.00;28.90;;;;;;5111772;28;20026;-53
2022/07/18 10:03:32;;;;;;;1.70;1.33;;;37.60;28.70;;;;;;5113014;28;20024;-51
2022/07/18 10:05:58;;;;;;;4.40;1.50;;;37.20;31.20;;;;;;5110799;28;20482;-44
2022/07/18 10:08:27;;;;;;;3.35;1.38;;;37.40;29.70;;;;;;5111079;28;20031;-46
2022/07/18 10:10:54;;;;;;;2.75;1.48;;;37.40;31.40;;;;;;5107070;28;20122;-45
2022/07/18 10:13:21;;;;;;;3.78;1.50;;;37.70;30.20;;;;;;5108707;28;20031;-46
2022/07/18 10:15:50;;;;;;;5.90;1.50;;;38.10;30.60;;;;;;5112776;28;20023;-46
2022/07/18 10:18:21;;;;;;;2.40;1.50;;;38.50;31.50;;;;;;5107082;28;20059;-48
2022/07/18 10:21:04;;;;;;;4.03;1.90;;;38.40;29.40;;;;;;5106355;28;20077;-49
2022/07/18 10:23:38;;;;;;;3.53;1.60;;;37.80;30.00;;;;;;5110503;28;20106;-45
2022/07/18 10:26:21;;;;;;;2.90;1.35;;;37.40;29.60;;;;;;5114657;28;20035;-43
2022/07/18 10:28:56;;;;;;;4.70;1.70;;;37.10;29.90;;;;;;5108000;27;20030;-43
2022/07/18 10:31:22;;;;;;;4.03;1.85;;;37.20;29.70;;;;;;5123130;27;20077;-41
2022/07/18 10:33:48;;;;;;;2.33;1.48;;;36.90;30.40;;;;;;5113814;28;20027;-44
2022/07/18 10:36:15;;;;;;;2.45;1.52;;;37.00;30.00;;;;;;5112793;27;20039;-49
2022/07/18 10:39:08;;;;;;;3.13;1.42;;;37.40;30.50;;;;;;5116017;27;20028;-41
2022/07/18 10:41:54;;;;;;;3.60;1.67;;;38.00;29.90;;;;;;5112601;27;20459;-41
2022/07/18 10:44:23;;;;;;;7.88;2.17;;;38.10;29.10;;;;;;5083578;28;20110;-45
2022/07/18 10:47:17;;;;;;;2.45;1.52;;;38.20;29.60;;;;;;5113339;28;20028;-42
2022/07/18 10:49:57;;;;;;;3.70;1.40;;;38.00;30.90;;;;;;5106559;28;20055;-44
2022/07/18 10:52:26;;;;;;;3.88;1.35;;;38.10;27.90;;;;;;5108550;28;20054;-42
2022/07/18 10:55:16;;;;;;;6.30;1.70;;;37.70;28.00;;;;;;5112589;27;20090;-51
2022/07/18 10:58:01;;;;;;;6.18;1.65;;;37.50;28.90;;;;;;5114909;27;20030;-45
2022/07/18 11:00:33;;;;;;;4.70;1.52;;;37.50;29.70;;;;;;5089330;27;20024;-45
2022/07/18 11:03:05;;;;;;;2.42;1.40;;;37.50;28.80;;;;;;5113443;27;20027;-45
2022/07/18 11:05:31;;;;;;;2.83;1.50;;;37.50;29.30;;;;;;5111436;27;20039;-43
2022/07/18 11:08:03;;;;;;;2.60;1.40;;;37.40;29.10;;;;;;5115024;27;20028;-41
2022/07/18 11:10:45;;;;;;;4.90;1.60;;;37.40;28.80;;;;;;5113117;28;20383;-44
2022/07/18 11:13:28;;;;;;;5.45;1.30;;;37.10;28.80;;;;;;5108446;28;20059;-40
2022/07/18 11:16:02;;;;;;;3.03;1.60;;;37.10;29.90;;;;;;5110890;28;20028;-40
2022/07/18 11:18:27;;;;;;;3.20;1.20;;;37.20;30.20;;;;;;5112942;27;20038;-41
2022/07/18 11:20:53;;;;;;;3.45;1.40;;;37.30;29.30;;;;;;5108574;27;20553;-41
2022/07/18 11:23:23;;;;;;;3.75;1.70;;;37.20;29.30;;;;;;5124416;27;20046;-42
2022/07/18 11:25:55;;;;;;;4.13;1.70;;;37.20;29.40;;;;;;5116610;27;20069;-49
2022/07/18 11:28:22;;;;;;;4.72;1.58;;;36.80;28.80;;;;;;5114138;27;20122;-48
2022/07/18 11:31:05;;;;;;;1.80;1.30;;;36.90;29.80;;;;;;5126895;27;20066;-44
2022/07/18 11:33:40;;;;;;;3.08;1.67;;;37.10;29.80;;;;;;5130190;27;20023;-46
2022/07/18 11:36:11;;;;;;;3.80;1.38;;;37.20;29.00;;;;;;5127399;27;20015;-48
2022/07/18 11:38:39;;;;;;;4.15;1.60;;;37.40;32.10;;;;;;5090529;28;20023;-45
2022/07/18 11:41:05;;;;;;;2.72;1.30;;;37.40;28.20;;;;;;5109730;27;20470;-44
2022/07/18 11:43:31;;;;;;;4.45;1.73;;;36.70;29.20;;;;;;5105727;27;20098;-42
2022/07/18 11:46:13;;;;;;;3.22;1.23;;;36.90;29.20;;;;;;5110853;27;20038;-49
2022/07/18 11:48:40;;;;;;;3.17;1.60;;;37.20;29.90;;;;;;5110693;27;20003;-42
2022/07/18 11:51:19;;;;;;;3.08;1.52;;;37.40;29.20;;;;;;5111597;27;20069;-39
2022/07/18 11:53:51;;;;;;;4.65;1.50;;;37.40;29.10;;;;;;5110749;27;20439;-47
2022/07/18 11:56:18;;;;;;;2.22;1.60;;;37.30;29.10;;;;;;5109970;28;20035;-45
2022/07/18 11:58:46;;;;;;;2.88;1.48;;;36.90;29.50;;;;;;5117186;27;20016;-44
2022/07/18 12:01:12;;;;;;;3.35;1.50;;;37.10;29.60;;;;;;5113626;27;20019;-43
2022/07/18 12:03:46;;;;;;;3.90;1.35;;;37.30;32.50;;;;;;5109857;27;20051;-42
2022/07/18 12:06:14;;;;;;;1.80;1.30;;;37.50;29.60;;;;;;5104859;27;20482;-45
2022/07/18 12:08:44;;;;;;;;;;;37.60;30.80;;;;;;5096104;28;20028;-43
2022/07/18 12:11:25;;;;;;;3.50;1.40;;;37.90;29.60;;;;;;5112333;27;19918;-39
2022/07/18 12:13:59;;;;;;;3.70;1.60;;;38.10;28.60;;;;;;5113533;27;20066;-40
2022/07/18 12:16:42;;;;;;;3.40;1.60;;;38.10;28.80;;;;;;5111040;27;20097;-46
2022/07/18 12:19:15;;;;;;;2.83;1.48;;;37.80;28.20;;;;;;5108665;27;20056;-40
2022/07/18 12:22:01;;;;;;;3.00;1.33;;;37.90;29.00;;;;;;5103333;28;20035;-39
2022/07/18 12:24:27;;;;;;;2.33;1.40;;;37.90;28.70;;;;;;5113131;27;20168;-40
2022/07/18 12:27:09;;;;;;;1.92;1.50;;;37.40;28.40;;;;;;5113780;27;21482;-49
2022/07/18 12:29:53;;;;;;;2.83;1.42;;;37.20;28.60;;;;;;5107648;27;20072;-43
2022/07/18 12:32:22;;;;;;;4.53;1.80;;;37.20;29.70;;;;;;5108616;27;20488;-45
2022/07/18 12:35:00;;;;;;;3.42;1.55;;;37.30;31.10;;;;;;5114069;27;20038;-45
2022/07/18 12:37:29;;;;;;;2.38;1.52;;;37.50;29.50;;;;;;5121132;27;20037;-49
2022/07/18 12:40:10;;;;;;;4.28;1.60;;;37.50;29.80;;;;;;5124300;27;20474;-40
2022/07/18 12:42:41;;;;;;;2.78;1.50;;;37.50;28.80;;;;;;5122338;27;20024;-41
2022/07/18 12:45:09;;;;;;;2.22;1.40;;;37.50;29.20;;;;;;5117062;27;20028;-47
2022/07/18 12:47:35;;;;;;;2.85;1.20;;;37.20;30.30;;;;;;5122494;27;20051;-46
2022/07/18 12:50:01;;;;;;;4.05;1.60;;;37.10;29.20;;;;;;5113415;27;20070;-47
2022/07/18 12:52:27;;;;;;;4.35;1.80;;;37.00;28.70;;;;;;5112271;27;20043;-48